Time;durP1;ratioP1;P1;durP2;ratioP2;P2;SDS_P1;SDS_P2;PMS_P1;PMS_P2;Temp;Humidity;BMP_temperature;BMP_pressure;BME280_temperature;BME280_humidity;BME280_pressure;Samples;Min_cycle;Max_cycle;Signal;HPM_P1;HPM_P2
2021/10/26 00:00:05;;;;;;;;;;;;;;;20.14;58.76;101474.84;7286759;19;153073;-49
2021/10/26 00:02:32;;;;;;;;;;;;;;;20.14;58.73;101479.63;7289221;19;152596;-49
2021/10/26 00:04:59;;;;;;;;;;;;;;;20.13;58.88;101487.19;7287654;19;153473;-49
2021/10/26 00:07:26;;;;;;;;;;;;;;;20.13;58.72;101489.16;7286019;19;153936;-48
2021/10/26 00:09:53;;;;;;;;;;;;;;;20.12;59.02;101490.31;7284788;19;151990;-49
2021/10/26 00:12:20;;;;;;;;;;;;;;;20.12;59.02;101493.13;7285832;19;154629;-49
2021/10/26 00:14:48;;;;;;;;;;;;;;;20.11;58.82;101494.25;7283679;19;152180;-48
2021/10/26 00:17:15;;;;;;;;;;;;;;;20.09;59.05;101491.72;7285493;19;151637;-49
2021/10/26 00:19:42;;;;;;;;;;;;;;;20.09;59.22;101494.53;7284898;19;152010;-49
2021/10/26 00:22:09;;;;;;;;;;;;;;;20.09;59.25;101513.31;7283058;19;153498;-49
2021/10/26 00:24:36;;;;;;;;;;;;;;;20.07;58.98;101504.38;7295380;19;151762;-48
2021/10/26 00:27:03;;;;;;;;;;;;;;;20.06;59.27;101503.53;7284417;19;154191;-50
2021/10/26 00:29:30;;;;;;;;;;;;;;;20.06;59.03;101505.50;7286557;19;152176;-49
2021/10/26 00:31:56;;;;;;;;;;;;;;;20.04;58.99;101511.38;7284243;19;153063;-50
2021/10/26 00:34:23;;;;;;;;;;;;;;;20.05;59.15;101509.41;7284649;19;154663;-50
2021/10/26 00:36:50;;;;;;;;;;;;;;;20.05;58.93;101512.22;7286095;19;151976;-50
2021/10/26 00:39:17;;;;;;;;;;;;;;;20.12;59.31;101521.16;7284735;19;153311;-50
2021/10/26 00:41:44;;;;;;;;;;;;;;;20.15;59.22;101524.22;7285773;19;153715;-49
2021/10/26 00:44:12;;;;;;;;;;;;;;;20.11;59.47;101527.91;7282588;19;152003;-49
2021/10/26 00:46:39;;;;;;;;;;;;;;;20.07;59.26;101522.03;7290947;19;152712;-49
2021/10/26 00:49:09;;;;;;;;;;;;;;;20.06;59.65;101519.53;7282913;19;152433;-50
2021/10/26 00:51:36;;;;;;;;;;;;;;;20.05;59.31;101515.88;7286430;19;152640;-50
2021/10/26 00:54:04;;;;;;;;;;;;;;;20.05;59.81;101515.88;7283307;19;153530;-50
2021/10/26 00:56:32;;;;;;;;;;;;;;;20.05;59.55;101517.84;7283629;19;151603;-49
2021/10/26 00:59:01;;;;;;;;;;;;;;;20.03;60.00;101520.13;7284575;19;152668;-49
2021/10/26 01:01:27;;;;;;;;;;;;;;;19.98;60.10;101506.97;7284275;19;152654;-50
2021/10/26 01:03:55;;;;;;;;;;;;;;;19.97;59.87;101511.72;7284230;19;151667;-49
2021/10/26 01:06:21;;;;;;;;;;;;;;;19.97;60.40;101510.88;7284707;19;153646;-50
2021/10/26 01:08:49;;;;;;;;;;;;;;;19.95;59.96;101516.78;7290383;19;153719;-50
2021/10/26 01:11:16;;;;;;;;;;;;;;;19.95;60.05;101516.78;7284102;19;152749;-50
2021/10/26 01:13:44;;;;;;;;;;;;;;;19.95;60.12;101505.56;7282946;19;153418;-50
2021/10/26 01:16:10;;;;;;;;;;;;;;;19.97;60.30;101517.34;7283846;19;151912;-50
2021/10/26 01:18:37;;;;;;;;;;;;;;;19.96;60.69;101518.47;7285096;19;153768;-49
2021/10/26 01:21:04;;;;;;;;;;;;;;;19.93;60.62;101505.03;7284091;19;153262;-50
2021/10/26 01:23:32;;;;;;;;;;;;;;;19.94;60.35;101501.06;7283069;19;151844;-49
2021/10/26 01:26:00;;;;;;;;;;;;;;;19.94;60.42;101501.06;7285145;19;153138;-50
2021/10/26 01:28:27;;;;;;;;;;;;;;;19.92;60.91;101496.91;7283442;19;153396;-49
2021/10/26 01:30:54;;;;;;;;;;;;;;;19.91;60.61;101496.06;7290885;19;152111;-50
2021/10/26 01:33:21;;;;;;;;;;;;;;;19.90;61.02;101496.34;7282244;19;153837;-49
2021/10/26 01:35:48;;;;;;;;;;;;;;;19.92;60.56;101485.69;7284842;19;152210;-50
2021/10/26 01:38:15;;;;;;;;;;;;;;;19.90;60.96;101488.75;7284791;19;152711;-50
2021/10/26 01:40:42;;;;;;;;;;;;;;;19.89;60.91;101495.53;7281109;19;153927;-50
2021/10/26 01:43:09;;;;;;;;;;;;;;;19.89;61.23;101492.72;7282328;19;152138;-49
2021/10/26 01:45:36;;;;;;;;;;;;;;;19.88;61.29;101479.81;7284801;19;153298;-49
2021/10/26 01:48:03;;;;;;;;;;;;;;;19.89;61.17;101467.47;7281945;19;152595;-50
2021/10/26 01:50:30;;;;;;;;;;;;;;;19.87;61.31;101472.53;7292052;19;151738;-50
2021/10/26 01:53:00;;;;;;;;;;;;;;;19.87;61.59;101469.72;7281633;19;153534;-51
2021/10/26 01:55:28;;;;;;;;;;;;;;;19.85;61.65;101480.38;7283155;19;151662;-50
2021/10/26 01:57:55;;;;;;;;;;;;;;;19.87;61.32;101478.13;7281962;19;152902;-50
2021/10/26 02:00:23;;;;;;;;;;;;;;;19.87;61.28;101474.50;7280715;19;153387;-50
2021/10/26 02:02:50;;;;;;;;;;;;;;;19.84;61.61;101478.72;7281215;19;152417;-50
2021/10/26 02:05:17;;;;;;;;;;;;;;;19.87;61.54;101478.13;7282207;19;154568;-49
2021/10/26 02:07:45;;;;;;;;;;;;;;;19.87;61.51;101478.13;7283787;19;153390;-49
2021/10/26 02:10:12;;;;;;;;;;;;;;;19.84;61.65;101473.13;7283117;19;152199;-50
2021/10/26 02:12:39;;;;;;;;;;;;;;;19.87;61.71;101474.50;7288175;19;152642;-50
2021/10/26 02:15:07;;;;;;;;;;;;;;;19.85;61.53;101471.97;7283651;19;151906;-49
2021/10/26 02:17:33;;;;;;;;;;;;;;;19.84;61.39;101466.69;7281977;19;153074;-50
2021/10/26 02:20:01;;;;;;;;;;;;;;;19.84;61.70;101461.91;7282028;19;152322;-49
2021/10/26 02:22:28;;;;;;;;;;;;;;;19.85;61.90;101474.78;7284753;19;152109;-50
2021/10/26 02:24:55;;;;;;;;;;;;;;;19.84;61.96;101475.94;7279476;19;152983;-49
2021/10/26 02:27:22;;;;;;;;;;;;;;;19.83;61.82;101477.03;7283173;19;153258;-50
2021/10/26 02:29:48;;;;;;;;;;;;;;;19.85;61.97;101471.16;7283665;19;151818;-50
2021/10/26 02:32:15;;;;;;;;;;;;;;;19.84;61.67;101472.28;7282802;19;151732;-49
2021/10/26 02:34:42;;;;;;;;;;;;;;;19.82;62.08;101469.75;7288835;19;153981;-50
2021/10/26 02:37:09;;;;;;;;;;;;;;;19.80;61.95;101471.19;7283738;19;152604;-50
2021/10/26 02:39:36;;;;;;;;;;;;;;;19.79;62.48;101472.31;7279470;19;153599;-50
2021/10/26 02:42:03;;;;;;;;;;;;;;;19.80;62.37;101468.38;7281603;19;152063;-49
2021/10/26 02:44:31;;;;;;;;;;;;;;;19.80;62.65;101472.03;7278090;19;154348;-50
2021/10/26 02:46:57;;;;;;;;;;;;;;;19.79;62.54;101464.75;7282244;19;153959;-49
2021/10/26 02:49:24;;;;;;;;;;;;;;;19.77;62.63;101464.19;7282555;19;151961;-49
2021/10/26 02:51:51;;;;;;;;;;;;;;;19.77;62.54;101466.97;7280300;19;152610;-49
2021/10/26 02:54:18;;;;;;;;;;;;;;;19.76;62.77;101465.31;7281606;19;153209;-49
2021/10/26 02:56:45;;;;;;;;;;;;;;;19.76;62.96;101462.50;7288233;19;151731;-50
2021/10/26 02:59:12;;;;;;;;;;;;;;;19.76;62.96;101459.69;7279138;19;156273;-50
2021/10/26 03:01:39;;;;;;;;;;;;;;;19.75;63.02;101460.00;7282067;19;151840;-49
2021/10/26 03:04:06;;;;;;;;;;;;;;;19.74;63.18;101473.19;7281092;19;152884;-50
2021/10/26 03:06:33;;;;;;;;;;;;;;;19.74;63.26;101470.38;7281158;19;153245;-50
2021/10/26 03:09:00;;;;;;;;;;;;;;;19.73;63.23;101463.09;7283210;19;151863;-50
2021/10/26 03:11:27;;;;;;;;;;;;;;;19.72;63.47;101449.34;7286285;19;151687;-50
2021/10/26 03:13:54;;;;;;;;;;;;;;;19.72;63.60;101461.41;7288865;19;153688;-50
2021/10/26 03:16:21;;;;;;;;;;;;;;;19.73;63.25;101459.44;7286491;19;152364;-50
2021/10/26 03:18:48;;;;;;;;;;;;;;;19.71;63.58;101462.56;7295258;19;153726;-50
2021/10/26 03:21:15;;;;;;;;;;;;;;;19.70;63.64;101460.88;7288966;19;151966;-50
2021/10/26 03:23:42;;;;;;;;;;;;;;;19.69;63.32;101462.00;7287326;19;153167;-50
2021/10/26 03:26:09;;;;;;;;;;;;;;;19.69;63.71;101453.59;7285872;19;152559;-49
2021/10/26 03:28:36;;;;;;;;;;;;;;;19.68;63.42;101457.50;7286518;19;151681;-50
2021/10/26 03:31:04;;;;;;;;;;;;;;;19.69;64.08;101456.41;7289222;19;152590;-50
2021/10/26 03:33:32;;;;;;;;;;;;;;;19.69;64.17;101447.13;7287422;19;153779;-50
2021/10/26 03:36:03;;;;;;;;;;;;;;;19.70;64.08;101446.84;7288684;19;151489;-51
2021/10/26 03:38:31;;;;;;;;;;;;;;;19.68;64.03;101446.28;7286395;19;152706;-50
2021/10/26 03:40:58;;;;;;;;;;;;;;;19.68;64.29;101454.72;7293130;19;153701;-50
2021/10/26 03:43:25;;;;;;;;;;;;;;;19.70;63.88;101471.25;7285934;19;151887;-51
2021/10/26 03:45:52;;;;;;;;;;;;;;;19.67;64.31;101461.44;7287630;19;154403;-50
2021/10/26 03:48:20;;;;;;;;;;;;;;;19.66;64.46;101456.16;7287853;19;152279;-50
2021/10/26 03:50:47;;;;;;;;;;;;;;;19.67;64.11;101464.25;7288360;19;152707;-50
2021/10/26 03:53:14;;;;;;;;;;;;;;;19.65;64.56;101458.09;7285868;19;152725;-50
2021/10/26 03:55:41;;;;;;;;;;;;;;;19.66;64.41;101453.34;7286660;19;151568;-50
2021/10/26 03:58:08;;;;;;;;;;;;;;;19.65;64.54;101449.69;7284597;19;152745;-51
2021/10/26 04:00:35;;;;;;;;;;;;;;;19.64;64.32;101450.81;7289275;19;153311;-51
2021/10/26 04:03:04;;;;;;;;;;;;;;;19.66;64.48;101451.38;7288570;19;153539;-50
2021/10/26 04:08:08;;;;;;;;;;;;;;;19.63;64.51;101454.75;7286505;19;152152;-51
2021/10/26 04:10:46;;;;;;;;;;;;;;;19.64;65.11;101464.00;7286005;19;153041;-51
2021/10/26 04:13:13;;;;;;;;;;;;;;;19.62;65.22;101464.31;7285750;19;154208;-51
2021/10/26 04:15:40;;;;;;;;;;;;;;;19.62;65.27;101464.31;7286673;19;154096;-50
2021/10/26 04:18:07;;;;;;;;;;;;;;;19.62;65.36;101463.47;7285082;19;152682;-50
2021/10/26 04:20:34;;;;;;;;;;;;;;;19.64;65.44;101470.44;7284721;19;153373;-51
2021/10/26 04:23:01;;;;;;;;;;;;;;;19.65;65.43;101469.31;7294989;19;151629;-50
2021/10/26 04:25:30;;;;;;;;;;;;;;;19.62;65.81;101472.72;7282921;19;152584;-50
2021/10/26 04:27:57;;;;;;;;;;;;;;;19.64;65.30;101470.44;7287447;19;151744;-51
2021/10/26 04:30:24;;;;;;;;;;;;;;;19.64;65.83;101466.78;7285046;19;153188;-51
2021/10/26 04:32:51;;;;;;;;;;;;;;;19.62;65.47;101483.94;7283174;19;153398;-51
2021/10/26 04:35:18;;;;;;;;;;;;;;;19.64;65.49;101490.06;7285902;19;151784;-51
2021/10/26 04:37:48;;;;;;;;;;;;;;;19.62;65.68;101495.13;7284182;19;151890;-51
2021/10/26 04:40:15;;;;;;;;;;;;;;;19.62;65.79;101480.28;7284078;19;153249;-50
2021/10/26 04:42:42;;;;;;;;;;;;;;;19.62;65.75;101480.28;7285981;19;151954;-51
2021/10/26 04:45:09;;;;;;;;;;;;;;;19.60;65.94;101488.13;7291214;19;152842;-51
2021/10/26 04:47:36;;;;;;;;;;;;;;;19.61;65.64;101490.66;7284556;19;151818;-51
2021/10/26 04:50:04;;;;;;;;;;;;;;;19.59;65.92;101486.44;7283344;19;152643;-52
2021/10/26 04:52:31;;;;;;;;;;;;;;;19.60;66.05;101485.31;7283038;19;153443;-51
2021/10/26 04:54:58;;;;;;;;;;;;;;;19.58;66.14;101494.00;7283864;19;151802;-51
2021/10/26 04:57:25;;;;;;;;;;;;;;;19.58;66.13;101491.22;7286608;19;153322;-51
2021/10/26 04:59:52;;;;;;;;;;;;;;;19.59;66.33;101490.09;7282870;19;154007;-51
2021/10/26 05:02:19;;;;;;;;;;;;;;;19.58;65.92;101480.00;7286762;19;151706;-51
2021/10/26 05:04:46;;;;;;;;;;;;;;;19.56;66.08;101487.88;7282402;19;152633;-51
2021/10/26 05:07:15;;;;;;;;;;;;;;;19.56;66.02;101487.88;7292095;19;152602;-51
2021/10/26 05:09:42;;;;;;;;;;;;;;;19.57;65.72;101502.72;7283731;19;153055;-51
2021/10/26 05:12:09;;;;;;;;;;;;;;;19.55;66.17;101514.22;7284634;19;154441;-52
2021/10/26 05:14:36;;;;;;;;;;;;;;;19.54;66.19;101527.38;7285366;19;151865;-51
2021/10/26 05:17:04;;;;;;;;;;;;;;;19.56;66.46;101520.66;7285727;19;152610;-51
2021/10/26 05:19:33;;;;;;;;;;;;;;;19.56;66.46;101526.28;7284020;19;153875;-50
2021/10/26 05:22:00;;;;;;;;;;;;;;;19.56;66.20;101537.47;7283407;19;151992;-51
2021/10/26 05:24:30;;;;;;;;;;;;;;;19.54;66.02;101521.78;7285191;19;153614;-51
2021/10/26 05:26:57;;;;;;;;;;;;;;;19.55;66.04;101525.44;7281554;19;154452;-51
2021/10/26 05:29:24;;;;;;;;;;;;;;;19.54;66.26;101534.97;7293278;19;151708;-51
2021/10/26 05:31:51;;;;;;;;;;;;;;;19.61;66.03;101546.72;7283194;19;154302;-51
2021/10/26 05:34:18;;;;;;;;;;;;;;;19.70;66.33;101544.16;7281919;19;151705;-51
2021/10/26 05:36:45;;;;;;;;;;;;;;;19.74;66.30;101543.28;7284578;19;152991;-51
2021/10/26 05:39:12;;;;;;;;;;;;;;;19.78;66.93;101537.91;7284684;19;153339;-52
2021/10/26 05:41:40;;;;;;;;;;;;;;;19.81;66.91;101543.78;7284906;19;151629;-50
2021/10/26 05:44:07;;;;;;;;;;;;;;;19.87;66.54;101542.63;7281888;19;153206;-51
2021/10/26 05:46:34;;;;;;;;;;;;;;;19.94;67.33;101556.34;7284235;19;152877;-51
2021/10/26 05:49:01;;;;;;;;;;;;;;;20.02;67.30;101554.91;7284652;19;152924;-51
2021/10/26 05:51:28;;;;;;;;;;;;;;;20.10;67.81;101552.31;7292041;19;152746;-52
2021/10/26 05:53:55;;;;;;;;;;;;;;;20.17;67.68;101552.00;7282944;19;151914;-51
2021/10/26 05:56:23;;;;;;;;;;;;;;;20.26;67.90;101555.84;7282084;19;153230;-51
2021/10/26 05:58:53;;;;;;;;;;;;;;;20.33;67.77;101557.22;7282033;19;154437;-51
2021/10/26 06:01:22;;;;;;;;;;;;;;;20.41;67.33;101547.34;7284002;19;151754;-50
2021/10/26 06:03:49;;;;;;;;;;;;;;;20.49;67.09;101546.69;7282720;19;152670;-49
2021/10/26 06:06:17;;;;;;;;;;;;;;;20.56;66.32;101541.59;7281394;19;153918;-49
2021/10/26 06:08:45;;;;;;;;;;;;;;;20.65;66.17;101550.22;7283296;19;152080;-49
2021/10/26 06:11:13;;;;;;;;;;;;;;;20.72;66.08;101550.72;7288257;19;153481;-50
2021/10/26 06:13:45;;;;;;;;;;;;;;;20.77;65.67;101559.94;7284191;19;151804;-49
2021/10/26 06:16:12;;;;;;;;;;;;;;;20.85;65.06;101561.25;7283084;19;153567;-48
2021/10/26 06:18:39;;;;;;;;;;;;;;;20.91;65.55;101568.50;7283099;19;152508;-49
2021/10/26 06:21:06;;;;;;;;;;;;;;;20.99;65.39;101570.66;7283734;19;151868;-48
2021/10/26 06:23:34;;;;;;;;;;;;;;;21.05;64.73;101575.09;7281941;19;152621;-48
2021/10/26 06:26:01;;;;;;;;;;;;;;;21.11;64.54;101579.56;7280759;19;154058;-48
2021/10/26 06:28:28;;;;;;;;;;;;;;;21.16;64.42;101584.31;7282818;19;151895;-49
2021/10/26 06:30:56;;;;;;;;;;;;;;;21.23;63.99;101593.22;7283385;19;152683;-49
2021/10/26 06:33:23;;;;;;;;;;;;;;;21.28;64.44;101587.53;7288450;19;153368;-49
2021/10/26 06:35:50;;;;;;;;;;;;;;;21.35;63.95;101593.63;7282877;19;152957;-49
2021/10/26 06:38:17;;;;;;;;;;;;;;;21.42;63.42;101584.84;7282377;19;154035;-49
2021/10/26 06:40:44;;;;;;;;;;;;;;;21.47;63.41;101593.22;7283335;19;151545;-49
2021/10/26 06:43:11;;;;;;;;;;;;;;;21.53;62.80;101589.22;7283997;19;152023;-49
2021/10/26 06:45:38;;;;;;;;;;;;;;;21.58;62.98;101586.34;7286035;19;152260;-49
2021/10/26 06:48:05;;;;;;;;;;;;;;;21.64;63.10;101599.19;7287490;19;152440;-49
2021/10/26 06:50:32;;;;;;;;;;;;;;;21.70;62.80;101601.66;7288060;19;152637;-49
2021/10/26 06:52:59;;;;;;;;;;;;;;;21.75;62.39;101595.13;7287250;19;152468;-49
2021/10/26 06:55:26;;;;;;;;;;;;;;;21.81;62.34;101590.25;7295298;19;152000;-49
2021/10/26 06:57:53;;;;;;;;;;;;;;;21.87;61.63;101589.91;7287171;19;153678;-49
2021/10/26 07:00:23;;;;;;;;;;;;;;;21.91;61.89;101598.56;7286532;19;152230;-49
2021/10/26 07:02:52;;;;;;;;;;;;;;;21.97;61.34;101600.22;7288653;19;152927;-49
2021/10/26 07:05:20;;;;;;;;;;;;;;;22.00;61.74;101608.88;7287296;19;153737;-49
2021/10/26 07:07:47;;;;;;;;;;;;;;;22.06;61.38;101606.84;7287937;19;151802;-49
2021/10/26 07:10:14;;;;;;;;;;;;;;;22.09;61.43;101609.03;7285575;19;152723;-49
2021/10/26 07:12:42;;;;;;;;;;;;;;;22.14;61.17;101611.78;7285404;19;153085;-49
2021/10/26 07:15:11;;;;;;;;;;;;;;;22.15;60.63;101611.50;7288286;19;151962;-48
2021/10/26 07:17:39;;;;;;;;;;;;;;;22.20;60.99;101607.78;7295483;19;154589;-50
2021/10/26 07:20:08;;;;;;;;;;;;;;;22.21;60.49;101609.44;7287246;19;152364;-49
2021/10/26 07:22:35;;;;;;;;;;;;;;;22.23;60.67;101612.78;7287497;19;153446;-49
2021/10/26 07:25:06;;;;;;;;;;;;;;;22.24;60.41;101608.84;7287688;19;153313;-49
2021/10/26 07:27:33;;;;;;;;;;;;;;;22.26;59.98;101616.97;7287582;19;151808;-49
2021/10/26 07:30:01;;;;;;;;;;;;;;;22.26;60.27;101626.25;7287059;19;153165;-49
2021/10/26 07:32:28;;;;;;;;;;;;;;;22.27;60.15;101639.19;7287029;19;153410;-48
2021/10/26 07:34:55;;;;;;;;;;;;;;;22.27;59.86;101616.66;7285903;19;151756;-48
2021/10/26 07:37:26;;;;;;;;;;;;;;;22.25;59.88;101623.75;7288247;19;152909;-49
2021/10/26 07:39:54;;;;;;;;;;;;;;;22.25;59.85;101616.16;7294529;19;153207;-49
2021/10/26 07:42:21;;;;;;;;;;;;;;;22.25;59.71;101623.75;7288302;19;153518;-49
2021/10/26 07:44:49;;;;;;;;;;;;;;;22.24;59.65;101627.69;7287330;19;153270;-49
2021/10/26 07:47:19;;;;;;;;;;;;;;;22.24;60.06;101631.34;7284222;19;151949;-48
2021/10/26 07:49:49;;;;;;;;;;;;;;;22.21;59.85;101631.97;7287533;19;153566;-48
2021/10/26 07:52:17;;;;;;;;;;;;;;;22.22;59.89;101625.19;7286515;19;152137;-48
2021/10/26 07:54:53;;;;;;;;;;;;;;;22.22;60.18;101628.00;7285517;19;152342;-49
2021/10/26 07:57:20;;;;;;;;;;;;;;;22.19;59.70;101631.41;7285008;19;154786;-48
2021/10/26 07:59:47;;;;;;;;;;;;;;;22.20;60.23;101640.72;7281858;19;153214;-49
2021/10/26 08:02:16;;;;;;;;;;;;;;;22.17;60.29;101637.34;7295697;19;151686;-49
2021/10/26 08:04:45;;;;;;;;;;;;;;;22.15;59.94;101644.44;7287406;19;153500;-49
2021/10/26 08:07:15;;;;;;;;;;;;;;;22.15;60.24;101644.44;7282659;19;152382;-49
2021/10/26 08:09:44;;;;;;;;;;;;;;;22.12;60.66;101637.41;7284609;19;152589;-49
2021/10/26 08:12:11;;;;;;;;;;;;;;;22.11;60.53;101640.53;7284266;19;153934;-49
2021/10/26 08:14:38;;;;;;;;;;;;;;;22.09;60.60;101638.03;7285959;19;152179;-49
2021/10/26 08:17:07;;;;;;;;;;;;;;;22.09;60.59;101635.22;7287054;19;152670;-49
2021/10/26 08:19:41;;;;;;;;;;;;;;;22.08;60.48;101646.75;7283713;19;152918;-49
2021/10/26 08:22:13;;;;;;;;;;;;;;;22.06;60.55;101644.28;7295299;19;151539;-49
2021/10/26 08:24:41;;;;;;;;;;;;;;;21.84;56.96;101634.69;7284758;19;153450;-49
2021/10/26 08:27:10;;;;;;;;;;;;;;;21.53;53.42;101622.97;7285814;19;152192;-50
2021/10/26 08:37:04;;;;;;;;;;;;;;;21.43;55.69;101637.13;7284582;19;153702;-49
2021/10/26 08:39:31;;;;;;;;;;;;;;;21.44;55.68;101650.06;7285443;19;152851;-49
2021/10/26 08:41:59;;;;;;;;;;;;;;;21.45;55.49;101643.28;7284444;19;151930;-49
2021/10/26 08:44:27;;;;;;;;;;;;;;;21.46;55.86;101647.78;7291410;19;153434;-50
2021/10/26 08:46:55;;;;;;;;;;;;;;;21.46;56.26;101643.00;7283776;19;152306;-49
2021/10/26 08:49:23;;;;;;;;;;;;;;;21.46;55.99;101636.53;7284515;19;152959;-49
2021/10/26 08:51:52;;;;;;;;;;;;;;;21.43;56.19;101632.34;7285554;19;154203;-50
2021/10/26 08:54:19;;;;;;;;;;;;;;;21.44;56.18;101619.94;7284941;19;152186;-49
2021/10/26 08:56:48;;;;;;;;;;;;;;;21.53;56.17;101623.78;7285980;19;152539;-49
2021/10/26 08:59:18;;;;;;;;;;;;;;;21.51;56.07;101619.63;7284349;19;153530;-50
2021/10/26 09:01:52;;;;;;;;;;;;;;;21.50;56.34;101618.78;7284388;19;151993;-50
2021/10/26 09:04:19;;;;;;;;;;;;;;;21.46;56.69;101614.03;7285940;19;153417;-50
2021/10/26 09:06:49;;;;;;;;;;;;;;;21.43;56.79;101609.88;7287943;19;153334;-50
2021/10/26 09:09:18;;;;;;;;;;;;;;;21.40;56.61;101607.63;7282089;19;153439;-49
2021/10/26 09:16:39;;;;;;;;;;;;;;;21.42;55.99;101602.56;7285776;19;152841;-50
2021/10/26 09:17:05;;;;;;;;;;;;;;;21.38;56.12;101604.31;7286200;19;153115;-50
2021/10/26 09:19:35;;;;;;;;;;;;;;;21.37;56.43;101613.88;7282415;19;152313;-50
2021/10/26 09:22:04;;;;;;;;;;;;;;;21.36;56.63;101614.16;7282533;19;151911;-50
2021/10/26 09:24:31;;;;;;;;;;;;;;;21.35;56.48;101606.88;7283301;19;152815;-51
2021/10/26 09:27:00;;;;;;;;;;;;;;;21.33;56.64;101595.91;7282295;19;153765;-50
2021/10/26 09:29:28;;;;;;;;;;;;;;;21.29;56.20;101589.22;7291070;19;151796;-50
2021/10/26 09:32:02;;;;;;;;;;;;;;;21.29;56.29;101589.22;7269452;19;154672;-50
2021/10/26 09:34:36;;;;;;;;;;;;;;;21.27;56.50;101591.47;7281170;19;151812;-50
2021/10/26 09:37:03;;;;;;;;;;;;;;;21.27;56.46;101583.03;7280591;19;153224;-50
2021/10/26 09:39:30;;;;;;;;;;;;;;;21.25;56.38;101582.53;7283457;19;154107;-50
2021/10/26 09:42:02;;;;;;;;;;;;;;;21.23;56.62;101579.16;7282594;19;152290;-50
2021/10/26 09:44:32;;;;;;;;;;;;;;;21.21;56.73;101582.25;7279384;19;153393;-50
2021/10/26 09:46:59;;;;;;;;;;;;;;;21.18;56.42;101574.44;7281457;19;153306;-50
2021/10/26 09:49:29;;;;;;;;;;;;;;;21.15;56.62;101574.19;7281823;19;152114;-50
2021/10/26 09:52:12;;;;;;;;;;;;;;;21.13;56.77;101576.44;7289366;19;153307;-49
2021/10/26 09:54:41;;;;;;;;;;;;;;;21.13;56.65;101574.47;7283965;19;152011;-50
2021/10/26 09:57:10;;;;;;;;;;;;;;;21.07;57.09;101570.03;7282495;19;152862;-50
2021/10/26 09:59:44;;;;;;;;;;;;;;;21.02;57.20;101570.09;7278842;19;152389;-50
2021/10/26 10:02:14;;;;;;;;;;;;;;;20.99;57.23;101567.00;7284136;19;153500;-50
2021/10/26 10:04:59;;;;;;;;;;;;;;;20.96;57.60;101565.66;7256550;19;155318;-50
2021/10/26 10:07:30;;;;;;;;;;;;;;;20.95;57.48;101560.31;7278166;19;153697;-50
2021/10/26 10:09:58;;;;;;;;;;;;;;;20.91;57.65;101562.03;7280743;19;152230;-51
2021/10/26 10:12:27;;;;;;;;;;;;;;;20.90;57.59;101555.59;7283991;19;153450;-50
2021/10/26 10:14:54;;;;;;;;;;;;;;;20.90;57.79;101561.19;7273131;19;151808;-50
2021/10/26 10:17:42;;;;;;;;;;;;;;;20.88;57.67;101557.03;7283580;19;152099;-50
2021/10/26 10:20:38;;;;;;;;;;;;;;;20.86;57.59;101560.97;7276671;19;152522;-49
2021/10/26 10:23:12;;;;;;;;;;;;;;;20.85;57.66;101562.09;7284589;19;151809;-50
2021/10/26 10:25:42;;;;;;;;;;;;;;;20.84;57.68;101560.44;7280494;19;153390;-50
2021/10/26 10:28:10;;;;;;;;;;;;;;;20.84;58.26;101560.44;7277660;19;153811;-50
2021/10/26 10:30:40;;;;;;;;;;;;;;;20.82;57.96;101564.66;7281636;19;151826;-50
2021/10/26 10:33:08;;;;;;;;;;;;;;;20.81;57.98;101575.06;7281905;19;152695;-50
2021/10/26 10:35:35;;;;;;;;;;;;;;;20.79;58.40;101580.16;7287301;19;153257;-50
2021/10/26 10:38:02;;;;;;;;;;;;;;;20.76;58.56;101580.72;7280420;19;153384;-50
2021/10/26 10:40:32;;;;;;;;;;;;;;;20.76;58.40;101574.25;7281089;19;153850;-50
2021/10/26 10:43:00;;;;;;;;;;;;;;;20.75;58.60;101581.88;7280669;19;152966;-50
2021/10/26 10:45:32;;;;;;;;;;;;;;;20.72;58.64;101579.63;7282908;19;153219;-49
2021/10/26 10:48:00;;;;;;;;;;;;;;;20.71;58.74;101582.75;7277974;19;154109;-50
2021/10/26 10:50:29;;;;;;;;;;;;;;;20.70;58.53;101584.72;7283414;19;152756;-50
2021/10/26 10:53:07;;;;;;;;;;;;;;;20.70;58.86;101583.88;7279127;19;152307;-50
2021/10/26 10:55:49;;;;;;;;;;;;;;;20.68;58.90;101589.78;7274546;19;152884;-49
2021/10/26 10:58:24;;;;;;;;;;;;;;;20.66;58.72;101602.44;7289767;19;151917;-49
2021/10/26 11:01:30;;;;;;;;;;;;;;;20.64;58.98;101597.13;7245459;19;154200;-50
2021/10/26 11:04:00;;;;;;;;;;;;;;;20.62;58.87;101590.97;7273676;19;152273;-50
2021/10/26 11:06:30;;;;;;;;;;;;;;;20.63;59.17;101589.81;7277981;19;153276;-50
2021/10/26 11:08:57;;;;;;;;;;;;;;;20.62;59.14;101602.22;7276630;19;154080;-50
2021/10/26 11:11:24;;;;;;;;;;;;;;;20.60;59.17;101596.03;7267153;19;153059;-50
2021/10/26 11:17:01;;;;;;;;;;;;;;;20.59;59.28;101602.78;7273955;19;152874;-50
2021/10/26 11:19:37;;;;;;;;;;;;;;;20.59;59.25;101599.97;7276959;19;153143;-50
2021/10/26 11:22:04;;;;;;;;;;;;;;;20.58;59.04;101594.66;7283291;19;153662;-50
2021/10/26 11:24:31;;;;;;;;;;;;;;;20.56;59.53;101600.56;7279393;19;152106;-50
2021/10/26 11:26:58;;;;;;;;;;;;;;;20.55;59.27;101598.88;7280007;19;152689;-50
2021/10/26 11:29:30;;;;;;;;;;;;;;;20.55;59.62;101600.84;7278330;19;153618;-50
2021/10/26 11:31:57;;;;;;;;;;;;;;;20.53;59.27;101608.72;7282281;19;152170;-50
2021/10/26 11:34:25;;;;;;;;;;;;;;;20.52;59.25;101605.09;7286580;19;153516;-49
2021/10/26 11:36:57;;;;;;;;;;;;;;;20.57;59.54;101602.25;7286469;19;154431;-50
2021/10/26 11:39:26;;;;;;;;;;;;;;;20.58;59.64;101605.91;7289089;19;151880;-50
2021/10/26 11:41:57;;;;;;;;;;;;;;;20.58;59.37;101608.69;7287299;19;153898;-50
2021/10/26 11:44:24;;;;;;;;;;;;;;;20.54;59.80;101604.78;7292107;19;154286;-50
2021/10/26 11:46:52;;;;;;;;;;;;;;;20.51;59.47;101602.56;7285322;19;152696;-50
2021/10/26 11:49:21;;;;;;;;;;;;;;;20.51;59.95;101606.22;7287048;19;154114;-50
2021/10/26 11:51:54;;;;;;;;;;;;;;;20.49;59.73;101588.81;7288464;19;151662;-49
2021/10/26 11:54:24;;;;;;;;;;;;;;;20.50;59.71;101587.69;7285185;19;152882;-50
2021/10/26 11:56:54;;;;;;;;;;;;;;;20.53;59.90;101586.28;7286967;19;153820;-50
2021/10/26 11:59:22;;;;;;;;;;;;;;;20.51;60.06;101586.56;7287128;19;151904;-50
2021/10/26 12:01:53;;;;;;;;;;;;;;;20.52;59.72;101578.97;7286247;19;153613;-50
2021/10/26 12:04:25;;;;;;;;;;;;;;;20.51;59.95;101582.91;7283927;19;153948;-49
2021/10/26 12:06:53;;;;;;;;;;;;;;;20.50;59.80;101586.84;7294972;19;152489;-50
2021/10/26 12:09:22;;;;;;;;;;;;;;;20.50;59.81;101581.22;7286060;19;153349;-49
2021/10/26 12:11:51;;;;;;;;;;;;;;;20.49;59.76;101571.97;7284922;19;151719;-50
2021/10/26 12:14:18;;;;;;;;;;;;;;;20.49;59.90;101585.19;7284654;19;153619;-50
2021/10/26 12:16:48;;;;;;;;;;;;;;;20.50;60.10;101575.63;7286216;19;152649;-52
2021/10/26 12:19:26;;;;;;;;;;;;;;;20.50;59.82;101573.66;7287242;19;151785;-52
2021/10/26 12:21:54;;;;;;;;;;;;;;;20.49;59.99;101571.97;7285472;19;153507;-49
2021/10/26 12:24:24;;;;;;;;;;;;;;;20.48;60.06;101572.28;7284511;19;154020;-49
2021/10/26 12:26:55;;;;;;;;;;;;;;;20.52;60.10;101562.97;7294514;19;152762;-49
2021/10/26 12:29:25;;;;;;;;;;;;;;;20.53;60.26;101566.63;7283539;19;153535;-50
2021/10/26 12:31:52;;;;;;;;;;;;;;;20.48;60.24;101569.47;7284144;19;152155;-49
2021/10/26 12:34:19;;;;;;;;;;;;;;;20.48;60.28;101575.94;7285152;19;152367;-49
2021/10/26 12:36:46;;;;;;;;;;;;;;;20.47;60.22;101576.22;7285213;19;153890;-50
2021/10/26 12:39:22;;;;;;;;;;;;;;;20.43;60.72;101570.34;7284100;19;152500;-50
2021/10/26 12:41:49;;;;;;;;;;;;;;;20.41;60.40;101575.41;7282157;19;153090;-50
2021/10/26 12:44:20;;;;;;;;;;;;;;;20.39;60.55;101577.69;7283963;19;153942;-50
2021/10/26 12:47:01;;;;;;;;;;;;;;;20.38;60.45;101560.00;7284621;19;152661;-50
2021/10/26 12:49:34;;;;;;;;;;;;;;;20.38;60.52;101564.78;7289577;19;153021;-50